| time (UTC) | temp F | wind direction | speed MPH | gust MPH | rain 1hr in | rain 24hr in | rain mn in | humidity % | barometer mb |
| 20260502130254 | 53 | 260 | 0.0 | 0.0 | 0.00 | 0.00 | 0.00 | 39 | 1015.7 |
| 20260502123740 | 50 | 242 | 0.0 | 0.0 | 0.00 | 0.00 | 0.00 | 40 | 1015.7 |
| 20260502123237 | 49 | 226 | 0.0 | 0.0 | 0.00 | 0.00 | 0.00 | 42 | 1015.4 |
| 20260502122734 | 49 | 257 | 0.0 | 0.0 | 0.00 | 0.00 | 0.00 | 42 | 1015.8 |
| 20260502122230 | 49 | 233 | 0.0 | 0.0 | 0.00 | 0.00 | 0.00 | 41 | 1016.0 |
| 20260502121728 | 48 | 223 | 0.0 | 0.0 | 0.00 | 0.00 | 0.00 | 42 | 1015.8 |
| 20260502121226 | 47 | 224 | 0.0 | 0.0 | 0.00 | 0.00 | 0.00 | 43 | 1015.6 |
| 20260502120722 | 48 | 264 | 0.0 | 0.0 | 0.00 | 0.00 | 0.00 | 42 | 1015.8 |
| 20260502120219 | 49 | 256 | 0.0 | 0.0 | 0.00 | 0.00 | 0.00 | 41 | 1015.6 |
| 20260502115717 | 48 | 253 | 0.0 | 0.0 | 0.00 | 0.00 | 0.00 | 40 | 1015.7 |
| 20260502115213 | 49 | 211 | 0.0 | 0.0 | 0.00 | 0.00 | 0.00 | 41 | 1015.9 |
| 20260502114709 | 50 | 248 | 0.0 | 0.0 | 0.00 | 0.00 | 0.00 | 40 | 1015.6 |
| 20260502114207 | 50 | 284 | 0.0 | 0.0 | 0.00 | 0.00 | 0.00 | 40 | 1015.6 |
| 20260502113704 | 49 | 191 | 0.0 | 1.0 | 0.00 | 0.00 | 0.00 | 40 | 1015.7 |
| 20260502113202 | 49 | 250 | 0.0 | 0.0 | 0.00 | 0.00 | 0.00 | 41 | 1015.8 |
| 20260502112659 | 49 | 276 | 0.0 | 0.0 | 0.00 | 0.00 | 0.00 | 40 | 1015.7 |
| 20260502112156 | 48 | 251 | 0.0 | 0.0 | 0.00 | 0.00 | 0.00 | 41 | 1015.8 |
| 20260502111654 | 49 | 213 | 0.0 | 0.0 | 0.00 | 0.00 | 0.00 | 41 | 1015.8 |
| 20260502111151 | 49 | 247 | 0.0 | 0.0 | 0.00 | 0.00 | 0.00 | 41 | 1015.8 |
| 20260502110649 | 49 | 236 | 1.0 | 3.0 | 0.00 | 0.00 | 0.00 | 40 | 1015.8 |
| 20260502110146 | 50 | 249 | 1.0 | 2.0 | 0.00 | 0.00 | 0.00 | 41 | 1015.9 |
| 20260502105643 | 50 | 237 | 5.0 | 8.0 | 0.00 | 0.00 | 0.00 | 39 | 1016.0 |
| 20260502105140 | 50 | 245 | 2.0 | 6.0 | 0.00 | 0.00 | 0.00 | 40 | 1015.7 |
| 20260502104637 | 49 | 248 | 1.0 | 3.0 | 0.00 | 0.00 | 0.00 | 40 | 1016.1 |
| 20260502104135 | 50 | 245 | 0.0 | 0.0 | 0.00 | 0.00 | 0.00 | 40 | 1015.9 |
| 20260502103632 | 48 | 181 | 0.0 | 0.0 | 0.00 | 0.00 | 0.00 | 42 | 1015.9 |
| 20260502103130 | 47 | 245 | 0.0 | 0.0 | 0.00 | 0.00 | 0.00 | 43 | 1016.1 |
| 20260502102627 | 46 | 224 | 0.0 | 0.0 | 0.00 | 0.00 | 0.00 | 46 | 1015.9 |
| 20260502102123 | 47 | 181 | 0.0 | 0.0 | 0.00 | 0.00 | 0.00 | 45 | 1016.1 |
| 20260502101622 | 48 | 221 | 0.0 | 0.0 | 0.00 | 0.00 | 0.00 | 44 | 1016.3 |
| 20260502101120 | 48 | 211 | 0.0 | 0.0 | 0.00 | 0.00 | 0.00 | 42 | 1016.1 |
| 20260502100618 | 47 | 165 | 0.0 | 0.0 | 0.00 | 0.00 | 0.00 | 43 | 1016.1 |
| 20260502100116 | 48 | 156 | 0.0 | 0.0 | 0.00 | 0.00 | 0.00 | 42 | 1016.4 |
| 20260502091049 | 44 | 162 | 0.0 | 0.0 | 0.00 | 0.00 | 0.00 | 47 | 1016.4 |
| 20260502090546 | 43 | 157 | 0.0 | 0.0 | 0.00 | 0.00 | 0.00 | 48 | 1016.3 |
| 20260502071446 | 44 | 267 | 0.0 | 0.0 | 0.00 | 0.00 | 0.00 | 46 | 1017.3 |
| 20260502070944 | 44 | 222 | 0.0 | 0.0 | 0.00 | 0.00 | 0.00 | 47 | 1017.4 |
| 20260502070442 | 45 | 258 | 0.0 | 0.0 | 0.00 | 0.00 | 0.00 | 45 | 1017.5 |
| 20260502065940 | 45 | 263 | 0.0 | 0.0 | 0.00 | 0.00 | 0.00 | 46 | 1017.6 |
| 20260502065438 | 45 | 244 | 0.0 | 0.0 | 0.00 | 0.00 | 0.00 | 47 | 1017.6 |
| 20260502064936 | 44 | 263 | 0.0 | 0.0 | 0.00 | 0.00 | 0.00 | 48 | 1017.5 |
| 20260502064434 | 44 | 242 | 0.0 | 0.0 | 0.00 | 0.00 | 0.00 | 49 | 1017.6 |
| 20260502063931 | 44 | 245 | 0.0 | 0.0 | 0.00 | 0.00 | 0.00 | 47 | 1017.6 |
| 20260502063428 | 45 | 265 | 0.0 | 0.0 | 0.00 | 0.00 | 0.00 | 49 | 1017.4 |
| 20260502062926 | 44 | 227 | 0.0 | 0.0 | 0.00 | 0.00 | 0.00 | 50 | 1017.4 |
| 20260502062423 | 44 | 245 | 0.0 | 0.0 | 0.00 | 0.00 | 0.00 | 50 | 1017.9 |
| 20260502061922 | 45 | 262 | 1.0 | 3.0 | 0.00 | 0.00 | 0.00 | 48 | 1017.8 |
| 20260502061419 | 45 | 276 | 0.0 | 0.0 | 0.00 | 0.00 | 0.00 | 48 | 1017.6 |
| 20260502060915 | 46 | 230 | 0.0 | 0.0 | 0.00 | 0.00 | 0.00 | 50 | 1017.6 |
| 20260502060410 | 46 | 226 | 1.0 | 3.0 | 0.00 | 0.00 | 0.00 | 49 | 1017.5 |
| 20260502055908 | 45 | 256 | 0.0 | 0.0 | 0.00 | 0.00 | 0.00 | 49 | 1017.5 |
| 20260502055405 | 44 | 256 | 0.0 | 0.0 | 0.00 | 0.00 | 0.00 | 52 | 1017.5 |
| 20260502054900 | 44 | 308 | 0.0 | 1.0 | 0.00 | 0.00 | 0.00 | 53 | 1017.6 |
| 20260502054357 | 44 | 312 | 0.0 | 0.0 | 0.00 | 0.00 | 0.00 | 55 | 1017.9 |
| 20260502053854 | 43 | 301 | 0.0 | 0.0 | 0.00 | 0.00 | 0.00 | 55 | 1017.8 |
| 20260502053351 | 43 | 281 | 0.0 | 0.0 | 0.00 | 0.00 | 0.00 | 56 | 1017.6 |
| 20260502052849 | 45 | 269 | 0.0 | 0.0 | 0.00 | 0.00 | 0.00 | 53 | 1018.0 |
| 20260502052347 | 44 | 269 | 0.0 | 0.0 | 0.00 | 0.00 | 0.00 | 54 | 1017.9 |
| 20260502051844 | 43 | 239 | 0.0 | 0.0 | 0.00 | 0.00 | 0.00 | 57 | 1017.8 |
| 20260502051343 | 43 | 238 | 0.0 | 0.0 | 0.00 | 0.00 | 0.00 | 57 | 1017.6 |
| 20260502050839 | 43 | 246 | 0.0 | 0.0 | 0.00 | 0.00 | 0.00 | 58 | 1018.1 |
| 20260502050336 | 43 | 277 | 0.0 | 0.0 | 0.00 | 0.00 | 0.00 | 58 | 1017.6 |
| 20260502045833 | 44 | 251 | 0.0 | 0.0 | 0.00 | 0.00 | 0.00 | 58 | 1017.6 |
| 20260502045329 | 43 | 270 | 0.0 | 0.0 | 0.00 | 0.00 | 0.00 | 59 | 1018.1 |
| 20260502044826 | 44 | 283 | 0.0 | 0.0 | 0.00 | 0.00 | 0.00 | 58 | 1018.1 |
| 20260502044322 | 44 | 245 | 0.0 | 0.0 | 0.00 | 0.00 | 0.00 | 58 | 1018.0 |
| 20260502043820 | 44 | 233 | 0.0 | 0.0 | 0.00 | 0.00 | 0.00 | 59 | 1018.0 |
| 20260502043317 | 44 | 269 | 0.0 | 0.0 | 0.00 | 0.00 | 0.00 | 57 | 1018.0 |
| 20260502042817 | 44 | 262 | 0.0 | 0.0 | 0.00 | 0.00 | 0.00 | 57 | 1018.2 |
| 20260502042315 | 45 | 278 | 0.0 | 0.0 | 0.00 | 0.00 | 0.00 | 56 | 1018.1 |
| 20260502041812 | 45 | 252 | 0.0 | 0.0 | 0.00 | 0.00 | 0.00 | 56 | 1018.1 |
| 20260502041309 | 44 | 265 | 0.0 | 0.0 | 0.00 | 0.00 | 0.00 | 57 | 1017.9 |
| 20260502040806 | 44 | 267 | 0.0 | 0.0 | 0.00 | 0.00 | 0.00 | 58 | 1018.2 |
| 20260502040302 | 44 | 244 | 0.0 | 0.0 | 0.00 | 0.00 | 0.00 | 58 | 1017.9 |
| 20260502035759 | 44 | 252 | 0.0 | 0.0 | 0.00 | 0.00 | 0.00 | 58 | 1018.0 |
| 20260502035255 | 44 | 261 | 0.0 | 0.0 | 0.00 | 0.00 | 0.00 | 57 | 1018.1 |
| 20260502034752 | 44 | 273 | 0.0 | 0.0 | 0.00 | 0.00 | 0.00 | 58 | 1018.1 |
| 20260502034251 | 44 | 237 | 0.0 | 0.0 | 0.00 | 0.00 | 0.00 | 59 | 1017.8 |
| 20260502033749 | 45 | 266 | 0.0 | 0.0 | 0.00 | 0.00 | 0.00 | 58 | 1018.1 |
| 20260502033246 | 44 | 268 | 0.0 | 0.0 | 0.00 | 0.00 | 0.00 | 59 | 1017.8 |
| 20260502032743 | 44 | 241 | 0.0 | 0.0 | 0.00 | 0.00 | 0.00 | 59 | 1018.0 |
| 20260502032238 | 45 | 217 | 0.0 | 0.0 | 0.00 | 0.00 | 0.00 | 58 | 1017.8 |
| 20260502031737 | 45 | 223 | 0.0 | 0.0 | 0.00 | 0.00 | 0.00 | 58 | 1018.0 |
| 20260502031234 | 44 | 270 | 0.0 | 0.0 | 0.00 | 0.00 | 0.00 | 59 | 1017.8 |
| 20260502030733 | 45 | 235 | 0.0 | 0.0 | 0.00 | 0.00 | 0.00 | 58 | 1017.9 |
| 20260502030230 | 45 | 246 | 0.0 | 0.0 | 0.00 | 0.00 | 0.00 | 58 | 1017.6 |
| 20260502025727 | 45 | 256 | 0.0 | 0.0 | 0.00 | 0.00 | 0.00 | 59 | 1017.9 |
| 20260502025225 | 46 | 236 | 0.0 | 0.0 | 0.00 | 0.00 | 0.00 | 58 | 1017.8 |
| 20260502024723 | 46 | 225 | 0.0 | 0.0 | 0.00 | 0.00 | 0.00 | 58 | 1017.8 |
| 20260502024221 | 46 | 200 | 0.0 | 0.0 | 0.00 | 0.00 | 0.00 | 58 | 1017.9 |
| 20260502023719 | 45 | 235 | 0.0 | 0.0 | 0.00 | 0.00 | 0.00 | 58 | 1017.9 |
| 20260502023216 | 45 | 235 | 0.0 | 0.0 | 0.00 | 0.00 | 0.00 | 60 | 1017.5 |
| 20260502022713 | 46 | 185 | 0.0 | 0.0 | 0.00 | 0.00 | 0.00 | 59 | 1017.8 |
| 20260502022209 | 47 | 243 | 0.0 | 0.0 | 0.00 | 0.00 | 0.00 | 58 | 1017.5 |
| 20260502021707 | 47 | 249 | 0.0 | 0.0 | 0.00 | 0.00 | 0.00 | 57 | 1017.5 |
| 20260502021204 | 47 | 243 | 0.0 | 0.0 | 0.00 | 0.00 | 0.00 | 57 | 1017.2 |
| 20260502020701 | 48 | 229 | 0.0 | 0.0 | 0.00 | 0.00 | 0.00 | 57 | 1017.5 |
| 20260502020158 | 48 | 204 | 0.0 | 0.0 | 0.00 | 0.00 | 0.00 | 56 | 1017.6 |
| 20260502015656 | 49 | 247 | 0.0 | 0.0 | 0.00 | 0.00 | 0.00 | 55 | 1017.5 |
| 20260502015152 | 50 | 215 | 0.0 | 0.0 | 0.00 | 0.00 | 0.00 | 53 | 1017.3 |
| 20260502014650 | 55 | 166 | 0.0 | 0.0 | 0.00 | 0.00 | 0.00 | 47 | 1017.4 |
| 20260502014146 | 56 | 48 | 0.0 | 0.0 | 0.00 | 0.00 | 0.00 | 43 | 1017.4 |
| 20260502013642 | 56 | 339 | 0.0 | 0.0 | 0.00 | 0.00 | 0.00 | 42 | 1017.2 |
| 20260502013138 | 57 | 350 | 0.0 | 0.0 | 0.00 | 0.00 | 0.00 | 42 | 1017.5 |
| 20260502012635 | 57 | 20 | 0.0 | 0.0 | 0.00 | 0.00 | 0.00 | 41 | 1017.3 |
| 20260502012133 | 57 | 354 | 0.0 | 0.0 | 0.00 | 0.00 | 0.00 | 40 | 1017.2 |
| 20260502011630 | 57 | 340 | 0.0 | 0.0 | 0.00 | 0.00 | 0.00 | 40 | 1017.3 |
| 20260502011125 | 58 | 330 | 1.0 | 2.0 | 0.00 | 0.00 | 0.00 | 38 | 1017.4 |
| 20260502010624 | 58 | 18 | 0.0 | 0.0 | 0.00 | 0.00 | 0.00 | 38 | 1017.1 |
| 20260502010120 | 58 | 340 | 0.0 | 0.0 | 0.00 | 0.00 | 0.00 | 38 | 1017.3 |
| 20260502005618 | 58 | 359 | 3.0 | 5.0 | 0.00 | 0.00 | 0.00 | 37 | 1017.1 |
| 20260502005115 | 59 | 348 | 0.0 | 0.0 | 0.00 | 0.00 | 0.00 | 38 | 1017.2 |
| 20260502004610 | 59 | 29 | 0.0 | 0.0 | 0.00 | 0.00 | 0.00 | 39 | 1016.9 |
| 20260502004108 | 59 | 349 | 0.0 | 0.0 | 0.00 | 0.00 | 0.00 | 38 | 1016.9 |
| 20260502003606 | 59 | 330 | 5.0 | 6.0 | 0.00 | 0.00 | 0.00 | 37 | 1017.3 |
| 20260502003102 | 59 | 344 | 1.0 | 3.0 | 0.00 | 0.00 | 0.00 | 38 | 1016.9 |
| 20260502002558 | 59 | 330 | 6.0 | 8.0 | 0.00 | 0.00 | 0.00 | 37 | 1017.2 |
| 20260502002056 | 59 | 352 | 5.0 | 7.0 | 0.00 | 0.00 | 0.00 | 37 | 1017.2 |
| 20260502001554 | 59 | 323 | 0.0 | 0.0 | 0.00 | 0.00 | 0.00 | 39 | 1017.2 |
| 20260502001050 | 59 | 302 | 4.0 | 7.0 | 0.00 | 0.00 | 0.00 | 39 | 1017.1 |
| 20260502000549 | 59 | 321 | 3.0 | 6.0 | 0.00 | 0.00 | 0.00 | 38 | 1016.9 |
| 20260502000046 | 60 | 328 | 7.0 | 9.0 | 0.00 | 0.00 | 0.00 | 36 | 1016.9 |
| 20260501235541 | 60 | 358 | 0.0 | 0.0 | 0.00 | 0.00 | 0.00 | 38 | 1017.1 |
| 20260501235038 | 60 | 3 | 1.0 | 2.0 | 0.00 | 0.00 | 0.00 | 37 | 1016.7 |
| 20260501234533 | 59 | 344 | 1.0 | 3.0 | 0.00 | 0.00 | 0.00 | 38 | 1016.7 |
| 20260501234032 | 59 | 324 | 7.0 | 9.0 | 0.00 | 0.00 | 0.00 | 36 | 1016.9 |
| 20260501233529 | 60 | 347 | 1.0 | 3.0 | 0.00 | 0.00 | 0.00 | 37 | 1017.1 |
| 20260501233026 | 60 | 336 | 5.0 | 7.0 | 0.00 | 0.00 | 0.00 | 38 | 1017.3 |
| 20260501232522 | 60 | 336 | 0.0 | 1.0 | 0.00 | 0.00 | 0.00 | 38 | 1016.9 |
| 20260501232020 | 60 | 322 | 8.0 | 10.0 | 0.00 | 0.00 | 0.00 | 36 | 1017.1 |
| 20260501231518 | 60 | 344 | 8.0 | 10.0 | 0.00 | 0.00 | 0.00 | 34 | 1016.9 |
| 20260501231016 | 60 | 341 | 7.0 | 8.0 | 0.00 | 0.00 | 0.00 | 38 | 1016.8 |
| 20260501230514 | 59 | 334 | 10.0 | 13.0 | 0.00 | 0.00 | 0.00 | 36 | 1016.9 |
| 20260501230012 | 60 | 13 | 7.0 | 10.0 | 0.00 | 0.00 | 0.00 | 37 | 1016.7 |
| 20260501225509 | 60 | 9 | 2.0 | 5.0 | 0.00 | 0.00 | 0.00 | 36 | 1017.2 |
| 20260501225004 | 59 | 312 | 9.0 | 11.0 | 0.00 | 0.00 | 0.00 | 38 | 1016.9 |
| 20260501224502 | 59 | 20 | 10.0 | 15.0 | 0.00 | 0.00 | 0.00 | 36 | 1017.2 |
| 20260501223959 | 59 | 327 | 7.0 | 8.0 | 0.00 | 0.00 | 0.00 | 37 | 1017.1 |
| 20260501223455 | 60 | 354 | 9.0 | 14.0 | 0.00 | 0.00 | 0.00 | 35 | 1017.1 |
| 20260501222950 | 59 | 333 | 1.0 | 2.0 | 0.00 | 0.00 | 0.00 | 35 | 1017.2 |
| 20260501222448 | 60 | 3 | 11.0 | 15.0 | 0.00 | 0.00 | 0.00 | 36 | 1016.8 |
| 20260501221944 | 60 | 356 | 2.0 | 3.0 | 0.00 | 0.00 | 0.00 | 38 | 1016.8 |
| 20260501221442 | 59 | 347 | 13.0 | 17.0 | 0.00 | 0.00 | 0.00 | 38 | 1017.1 |
| 20260501220939 | 59 | 356 | 11.0 | 17.0 | 0.00 | 0.00 | 0.00 | 37 | 1016.9 |
| 20260501220437 | 59 | 5 | 2.0 | 3.0 | 0.00 | 0.00 | 0.00 | 37 | 1017.2 |
| 20260501215932 | 59 | 347 | 12.0 | 15.0 | 0.00 | 0.00 | 0.00 | 34 | 1017.3 |
| 20260501215430 | 60 | 316 | 9.0 | 13.0 | 0.00 | 0.00 | 0.00 | 38 | 1016.8 |
| 20260501214925 | 59 | 337 | 11.0 | 13.0 | 0.00 | 0.00 | 0.00 | 37 | 1016.9 |
| 20260501214420 | 59 | 4 | 10.0 | 14.0 | 0.00 | 0.00 | 0.00 | 38 | 1017.1 |
| 20260501213916 | 59 | 351 | 5.0 | 8.0 | 0.00 | 0.00 | 0.00 | 39 | 1017.2 |
| 20260501213414 | 60 | 4 | 6.0 | 7.0 | 0.00 | 0.00 | 0.00 | 37 | 1017.2 |
| 20260501212908 | 60 | 350 | 5.0 | 7.0 | 0.00 | 0.00 | 0.00 | 38 | 1017.2 |
| 20260501212406 | 60 | 341 | 6.0 | 7.0 | 0.00 | 0.00 | 0.00 | 39 | 1017.2 |
| 20260501211902 | 59 | 338 | 11.0 | 11.0 | 0.00 | 0.00 | 0.00 | 38 | 1017.3 |
| 20260501211400 | 59 | 330 | 12.0 | 13.0 | 0.00 | 0.00 | 0.00 | 37 | 1017.3 |
| 20260501210857 | 59 | 357 | 10.0 | 14.0 | 0.00 | 0.00 | 0.00 | 34 | 1017.5 |
| 20260501210349 | 59 | 343 | 5.0 | 7.0 | 0.00 | 0.00 | 0.00 | 39 | 1017.2 |
| 20260501205845 | 59 | 352 | 15.0 | 18.0 | 0.00 | 0.00 | 0.00 | 36 | 1017.4 |
| 20260501205342 | 59 | 25 | 14.0 | 17.0 | 0.00 | 0.00 | 0.00 | 38 | 1017.4 |
| 20260501204839 | 59 | 6 | 12.0 | 18.0 | 0.00 | 0.00 | 0.00 | 38 | 1017.3 |
| 20260501204336 | 60 | 351 | 7.0 | 10.0 | 0.00 | 0.00 | 0.00 | 38 | 1017.5 |
| 20260501203832 | 59 | 359 | 10.0 | 17.0 | 0.00 | 0.00 | 0.00 | 36 | 1017.4 |
| 20260501203329 | 60 | 8 | 7.0 | 8.0 | 0.00 | 0.00 | 0.00 | 39 | 1017.4 |
| 20260501202826 | 59 | 298 | 11.0 | 15.0 | 0.00 | 0.00 | 0.00 | 36 | 1017.4 |
| 20260501202323 | 58 | 336 | 6.0 | 8.0 | 0.00 | 0.00 | 0.00 | 39 | 1017.5 |
| 20260501201820 | 59 | 358 | 9.0 | 11.0 | 0.00 | 0.00 | 0.00 | 39 | 1017.5 |
| 20260501201317 | 59 | 359 | 10.0 | 13.0 | 0.00 | 0.00 | 0.00 | 39 | 1017.4 |
| 20260501200813 | 59 | 352 | 6.0 | 7.0 | 0.00 | 0.00 | 0.00 | 40 | 1017.3 |
| 20260501200310 | 59 | 348 | 11.0 | 18.0 | 0.00 | 0.00 | 0.00 | 39 | 1017.4 |
| 20260501195808 | 59 | 328 | 12.0 | 17.0 | 0.00 | 0.00 | 0.00 | 39 | 1017.3 |
| 20260501195306 | 58 | 356 | 7.0 | 9.0 | 0.00 | 0.00 | 0.00 | 41 | 1017.4 |
| 20260501194800 | 58 | 325 | 12.0 | 17.0 | 0.00 | 0.00 | 0.00 | 39 | 1017.4 |
| 20260501194256 | 58 | 357 | 7.0 | 9.0 | 0.00 | 0.00 | 0.00 | 41 | 1017.4 |
| 20260501193752 | 59 | 337 | 6.0 | 11.0 | 0.00 | 0.00 | 0.00 | 40 | 1017.5 |
| 20260501193251 | 57 | 331 | 7.0 | 9.0 | 0.00 | 0.00 | 0.00 | 40 | 1017.3 |
| 20260501192748 | 58 | 358 | 13.0 | 16.0 | 0.00 | 0.00 | 0.00 | 41 | 1017.3 |
| 20260501192244 | 57 | 323 | 6.0 | 8.0 | 0.00 | 0.00 | 0.00 | 43 | 1017.5 |
| 20260501191742 | 58 | 342 | 12.0 | 16.0 | 0.00 | 0.00 | 0.00 | 39 | 1017.3 |
| 20260501191239 | 57 | 349 | 15.0 | 16.0 | 0.00 | 0.00 | 0.00 | 38 | 1017.4 |
| 20260501190736 | 57 | 351 | 11.0 | 15.0 | 0.00 | 0.00 | 0.00 | 40 | 1017.4 |
| 20260501190231 | 57 | 343 | 6.0 | 9.0 | 0.00 | 0.00 | 0.00 | 41 | 1017.4 |
| 20260501185727 | 57 | 335 | 11.0 | 14.0 | 0.00 | 0.00 | 0.00 | 39 | 1017.4 |
| 20260501185224 | 57 | 350 | 15.0 | 18.0 | 0.00 | 0.00 | 0.00 | 40 | 1017.4 |
| 20260501184720 | 57 | 6 | 11.0 | 18.0 | 0.00 | 0.00 | 0.00 | 39 | 1017.5 |
| 20260501184215 | 57 | 338 | 11.0 | 15.0 | 0.00 | 0.00 | 0.00 | 40 | 1017.8 |
| 20260501183711 | 57 | 348 | 17.0 | 23.0 | 0.00 | 0.00 | 0.00 | 38 | 1017.6 |
| 20260501183209 | 57 | 335 | 8.0 | 10.0 | 0.00 | 0.00 | 0.00 | 39 | 1017.6 |
| 20260501182705 | 57 | 348 | 15.0 | 17.0 | 0.00 | 0.00 | 0.00 | 39 | 1017.4 |
| 20260501182201 | 57 | 328 | 11.0 | 14.0 | 0.00 | 0.00 | 0.00 | 40 | 1017.5 |
| 20260501181658 | 57 | 350 | 14.0 | 16.0 | 0.00 | 0.00 | 0.00 | 38 | 1017.6 |
| 20260501181156 | 58 | 2 | 9.0 | 13.0 | 0.00 | 0.00 | 0.00 | 41 | 1017.3 |
| 20260501180654 | 58 | 353 | 6.0 | 9.0 | 0.00 | 0.00 | 0.00 | 41 | 1017.4 |
| 20260501180149 | 57 | 355 | 9.0 | 9.0 | 0.00 | 0.00 | 0.00 | 41 | 1017.3 |
| 20260501175646 | 57 | 350 | 10.0 | 13.0 | 0.00 | 0.00 | 0.00 | 41 | 1017.5 |
| 20260501175143 | 57 | 355 | 10.0 | 17.0 | 0.00 | 0.00 | 0.00 | 39 | 1017.5 |
| 20260501174640 | 57 | 339 | 9.0 | 15.0 | 0.00 | 0.00 | 0.00 | 42 | 1017.5 |
| 20260501174137 | 57 | 354 | 20.0 | 25.0 | 0.00 | 0.00 | 0.00 | 40 | 1017.6 |
| 20260501173635 | 57 | 10 | 13.0 | 16.0 | 0.00 | 0.00 | 0.00 | 41 | 1017.4 |
| 20260501173132 | 56 | 347 | 4.0 | 6.0 | 0.00 | 0.00 | 0.00 | 41 | 1017.5 |
| 20260501172627 | 56 | 358 | 15.0 | 21.0 | 0.00 | 0.00 | 0.00 | 39 | 1017.5 |
| 20260501172122 | 57 | 344 | 15.0 | 18.0 | 0.00 | 0.00 | 0.00 | 40 | 1017.5 |
| 20260501171618 | 56 | 356 | 16.0 | 18.0 | 0.00 | 0.00 | 0.00 | 41 | 1017.8 |
| 20260501171115 | 56 | 341 | 13.0 | 18.0 | 0.00 | 0.00 | 0.00 | 40 | 1017.4 |
| 20260501170612 | 57 | 357 | 5.0 | 10.0 | 0.00 | 0.00 | 0.00 | 44 | 1017.4 |
| 20260501170109 | 56 | 332 | 10.0 | 15.0 | 0.00 | 0.00 | 0.00 | 42 | 1017.4 |
| 20260501165606 | 56 | 351 | 8.0 | 15.0 | 0.00 | 0.00 | 0.00 | 43 | 1017.6 |
| 20260501165104 | 55 | 334 | 6.0 | 9.0 | 0.00 | 0.00 | 0.00 | 43 | 1017.5 |
| 20260501164601 | 55 | 348 | 12.0 | 14.0 | 0.00 | 0.00 | 0.00 | 40 | 1017.6 |
| 20260501164058 | 57 | 316 | 10.0 | 14.0 | 0.00 | 0.00 | 0.00 | 41 | 1017.5 |
| 20260501163555 | 56 | 351 | 6.0 | 8.0 | 0.00 | 0.00 | 0.00 | 43 | 1017.3 |
| 20260501163052 | 55 | 311 | 7.0 | 9.0 | 0.00 | 0.00 | 0.00 | 42 | 1017.4 |
| 20260501162548 | 55 | 321 | 7.0 | 8.0 | 0.00 | 0.00 | 0.00 | 41 | 1017.6 |
| 20260501162045 | 55 | 300 | 12.0 | 17.0 | 0.00 | 0.00 | 0.00 | 41 | 1017.3 |
| 20260501161542 | 55 | 336 | 11.0 | 13.0 | 0.00 | 0.00 | 0.00 | 41 | 1017.5 |
| 20260501161038 | 55 | 338 | 11.0 | 11.0 | 0.00 | 0.00 | 0.00 | 41 | 1017.5 |
| 20260501160536 | 55 | 311 | 6.0 | 14.0 | 0.00 | 0.00 | 0.00 | 44 | 1017.4 |
| 20260501160033 | 55 | 346 | 13.0 | 17.0 | 0.00 | 0.00 | 0.00 | 41 | 1017.2 |
| 20260501155529 | 55 | 314 | 5.0 | 8.0 | 0.00 | 0.00 | 0.00 | 42 | 1016.9 |
| 20260501155026 | 55 | 335 | 7.0 | 10.0 | 0.00 | 0.00 | 0.00 | 42 | 1017.3 |
| 20260501154518 | 55 | 335 | 7.0 | 9.0 | 0.00 | 0.00 | 0.00 | 42 | 1016.9 |
| 20260501154015 | 55 | 340 | 10.0 | 11.0 | 0.00 | 0.00 | 0.00 | 42 | 1016.9 |
| 20260501153513 | 53 | 324 | 11.0 | 14.0 | 0.00 | 0.00 | 0.00 | 42 | 1016.9 |
| 20260501153008 | 53 | 348 | 11.0 | 17.0 | 0.00 | 0.00 | 0.00 | 42 | 1017.1 |
| 20260501152506 | 54 | 336 | 8.0 | 11.0 | 0.00 | 0.00 | 0.00 | 43 | 1016.9 |
| 20260501152003 | 53 | 281 | 7.0 | 9.0 | 0.00 | 0.00 | 0.00 | 44 | 1017.3 |
| 20260501151500 | 53 | 335 | 5.0 | 6.0 | 0.00 | 0.00 | 0.00 | 45 | 1017.3 |
| 20260501150956 | 54 | 339 | 10.0 | 13.0 | 0.00 | 0.00 | 0.00 | 44 | 1017.4 |
| 20260501150451 | 53 | 341 | 5.0 | 8.0 | 0.00 | 0.00 | 0.00 | 45 | 1017.6 |
| 20260501145949 | 53 | 332 | 3.0 | 5.0 | 0.00 | 0.00 | 0.00 | 45 | 1017.3 |
| 20260501145445 | 53 | 326 | 6.0 | 9.0 | 0.00 | 0.00 | 0.00 | 44 | 1017.4 |
| 20260501144942 | 52 | 353 | 1.0 | 2.0 | 0.00 | 0.00 | 0.00 | 44 | 1017.1 |
| 20260501144438 | 53 | 323 | 10.0 | 14.0 | 0.00 | 0.00 | 0.00 | 43 | 1017.4 |
| 20260501143934 | 52 | 318 | 2.0 | 5.0 | 0.00 | 0.00 | 0.00 | 45 | 1017.2 |
| 20260501143430 | 52 | 333 | 13.0 | 14.0 | 0.00 | 0.00 | 0.00 | 43 | 1017.2 |
| 20260501142927 | 52 | 334 | 2.0 | 5.0 | 0.00 | 0.00 | 0.00 | 44 | 1017.4 |
| 20260501142425 | 51 | 280 | 0.0 | 0.0 | 0.00 | 0.00 | 0.00 | 46 | 1017.3 |
| 20260501141920 | 51 | 324 | 6.0 | 7.0 | 0.00 | 0.00 | 0.00 | 44 | 1017.3 |